Flight Track Log - Related Links

Times and Time Zones

All times are in EDT time to prevent confusion due to time zone crossing. See the USC142 flight status page for this flight to view local times or setup timezone preferences in your user account.

Time Position Orientation Groundspeed Altitude Reporting Facility
EDT Latitude Longitude Course Direction KTS MPH feet Rate Location/Type
Wed 06:58:19 PM 42.9167 -78.7500 216° Southwest 102 117 1,200  Level Buffalo TRACON
Wed 06:59:01 PM 42.9000 -78.7667 216° Southwest 128 147 1,900 1,000 Climbing Buffalo TRACON
Wed 07:00:01 PM 42.8667 -78.7500 160° South 144 166 2,900 952 Climbing Buffalo TRACON
Wed 07:01:07 PM 42.8333 -78.7167 144° Southeast 158 182 3,900 900 Climbing Buffalo TRACON
Wed 07:02:01 PM 42.8000 -78.6667 132° Southeast 157 181 4,700 895 Climbing Buffalo TRACON
Wed 07:03:01 PM 42.7833 -78.6333 124° Southeast 156 180 5,600 843 Climbing Buffalo TRACON
Wed 07:04:02 PM 42.7667 -78.5667 109° East 167 192 6,400 744 Climbing Buffalo TRACON
Wed 07:05:02 PM 42.7667 -78.5000 90° East 179 206 7,100 700 Climbing Buffalo TRACON
Wed 07:06:02 PM 42.7667 -78.4333 90° East 176 203 7,800 550 Climbing Buffalo TRACON
Wed 07:06:51 PM 42.7769 -78.3911 72° East 179 206 8,100 448 Climbing Cleveland Center
Wed 07:07:09 PM 42.7767 -78.3683 91° East 185 213 8,300 667 Climbing Cleveland Center
Wed 07:08:03 PM 42.7858 -78.3031 79° East 190 219 8,900 365 Climbing Cleveland Center
Wed 07:09:04 PM 42.7925 -78.2264 83° East 205 236 9,000  Climbing Cleveland Center
Wed 07:10:05 PM 42.8011 -78.1411 82° East 226 260 8,900 -50 Descending Cleveland Center
Wed 07:11:05 PM 42.8078 -78.0589 84° East 222 255 8,900  Level Cleveland Center
Wed 07:12:06 PM 42.8183 -77.9733 80° East 228 262 8,900  Level Cleveland Center
Wed 07:13:07 PM 42.8269 -77.8881 82° East 226 260 8,900  Level Cleveland Center
Wed 07:14:07 PM 42.8331 -77.7972 85° East 227 261 8,900  Level Cleveland Center
Wed 07:15:08 PM 42.8350 -77.7094 88° East 233 268 8,900  Level Cleveland Center
Wed 07:16:09 PM 42.8328 -77.6217 92° East 230 265 8,900  Level Cleveland Center
Wed 07:17:09 PM 42.8306 -77.5339 92° East 232 267 8,900  Level Cleveland Center
Wed 07:18:10 PM 42.8325 -77.4489 88° East 228 262 8,900  Level Cleveland Center
Wed 07:19:10 PM 42.8300 -77.3614 92° East 231 266 8,900  Level Cleveland Center
Wed 07:20:17 PM 42.8272 -77.2594 92° East 233 268 8,900  Level Cleveland Center
Wed 07:21:12 PM 42.8247 -77.1775 92° East 239 275 8,900 -58 Level Cleveland Center
Wed 07:22:00 PM 42.8258 -77.1064 89° East 238 274 8,800 -63 Descending Boston Center
Wed 07:22:48 PM 42.8264 -77.0383 89° East 232 267 8,800  Level Boston Center
Wed 07:23:43 PM 42.8275 -76.9592 89° East 229 264 8,800 55 Level Boston Center
Wed 07:24:37 PM 42.8225 -76.8767 95° East 231 266 8,900 52 Climbing Boston Center
Wed 07:25:38 PM 42.8194 -76.7914 93° East 234 269 8,900  Level Boston Center
Wed 07:26:39 PM 42.8164 -76.7064 93° East 230 265 8,900  Level Boston Center
Wed 07:27:39 PM 42.8114 -76.6181 94° East 233 268 8,900  Level Boston Center
Wed 07:28:40 PM 42.8186 -76.5308 84° East 232 267 8,900  Level Boston Center
Wed 07:29:41 PM 42.8242 -76.4350 85° East 232 267 8,900  Level Boston Center
Wed 07:30:41 PM 42.8294 -76.3447 85° East 230 265 8,900  Level Boston Center
Wed 07:31:42 PM 42.8364 -76.2600 84° East 230 265 8,900  Level Boston Center
Wed 07:32:43 PM 42.8436 -76.1728 84° East 234 269 8,900  Level Boston Center
Wed 07:33:43 PM 42.8506 -76.0881 84° East 230 265 8,900  Level Boston Center
Wed 07:34:44 PM 42.8575 -76.0008 84° East 232 267 8,900  Level Boston Center
Wed 07:35:44 PM 42.8642 -75.9133 84° East 231 266 8,900  Level Boston Center
Wed 07:36:45 PM 42.8714 -75.8200 84° East 233 268 8,900  Level Boston Center
Wed 07:37:46 PM 42.8781 -75.7328 84° East 234 269 8,900  Level Boston Center
Wed 07:38:46 PM 42.8847 -75.6453 84° East 231 266 8,900  Level Boston Center
Wed 07:39:47 PM 42.8892 -75.5603 86° East 227 261 8,900  Level Boston Center
Wed 07:40:41 PM 42.8975 -75.4786 82° East 230 265 8,900  Level Boston Center
Wed 07:41:54 PM 42.9022 -75.3794 86° East 230 265 8,900  Level Boston Center
Wed 07:42:55 PM 42.9089 -75.2833 85° East 234 269 8,900  Level Boston Center
Wed 07:43:49 PM 42.9106 -75.2097 88° East 233 268 8,900  Level Boston Center
Wed 07:44:56 PM 42.9131 -75.1050 88° East 237 273 8,900  Level Boston Center
Wed 07:45:51 PM 42.9172 -75.0231 86° East 238 274 8,900  Level Boston Center
Wed 07:46:11 PM 42.9158 -74.9944 94° East 239 275 8,900  Level Boston Center
Wed 07:46:54 PM 42.9150 -74.9322 91° East 235 270 8,900  Level Boston Center
Wed 07:47:54 PM 42.9064 -74.8439 98° East 237 273 8,900  Level Boston Center
Wed 07:48:55 PM 42.8958 -74.7556 99° East 238 274 8,900  Level Boston Center
Wed 07:49:56 PM 42.8872 -74.6647 97° East 241 277 8,900  Level Boston Center
Wed 07:50:56 PM 42.8786 -74.5650 97° East 241 277 8,900  Level Boston Center
Wed 07:51:57 PM 42.8678 -74.4742 99° East 242 278 8,900  Level Boston Center
Wed 07:53:04 PM 42.8592 -74.3803 97° East 241 277 8,900  Level Boston Center
Wed 07:54:04 PM 42.8481 -74.2922 100° East 239 275 8,900  Level Boston Center
Wed 07:55:11 PM 42.8392 -74.1900 97° East 239 275 8,900  Level Boston Center
Wed 07:56:00 PM 42.8297 -74.1189 100° East 240 276 8,900  Level Boston Center
Wed 07:57:00 PM 42.8186 -74.0281 99° East 241 277 8,900  Level Boston Center
Wed 07:58:01 PM 42.8033 -73.9314 102° East 245 282 8,900  Level Boston Center
Wed 07:59:02 PM 42.7939 -73.8464 99° East 243 280 8,900  Level Boston Center
Wed 08:00:02 PM 42.7783 -73.7525 103° East 248 285 8,900  Level Boston Center
Wed 08:01:03 PM 42.7692 -73.6561 97° East 243 280 8,900  Level Boston Center
Wed 08:02:10 PM 42.7575 -73.5569 99° East 244 281 8,900  Level Boston Center
Wed 08:03:04 PM 42.7481 -73.4719 99° East 245 282 8,900  Level Boston Center
Wed 08:03:32 PM 42.7442 -73.4294 97° East 248 285 8,900  Level Boston Center
Wed 08:04:32 PM 42.7344 -73.3503 99° East 248 285 8,900  Level Boston Center
Wed 08:05:32 PM 42.7225 -73.2539 100° East 241 277 8,900  Level Boston Center
Wed 08:06:32 PM 42.7147 -73.1747 98° East 236 272 8,900  Level Boston Center
Wed 08:07:44 PM 42.7008 -73.0758 101° East 236 272 8,900  Level Boston Center
Wed 08:08:44 PM 42.6931 -72.9797 96° East 236 272 8,900  Level Boston Center
Wed 08:09:44 PM 42.6808 -72.8919 101° East 236 272 8,900  Level Boston Center
Wed 08:10:44 PM 42.6708 -72.7931 98° East 236 272 8,900  Level Boston Center
Wed 08:11:44 PM 42.6586 -72.7028 100° East 236 272 8,900 50 Level Boston Center
Wed 08:12:44 PM 42.6461 -72.6150 101° East 236 272 9,000 50 Climbing Boston Center
Wed 08:13:44 PM 42.6358 -72.5275 99° East 236 272 9,000  Level Boston Center
Wed 08:14:44 PM 42.6214 -72.4400 103° East 236 272 9,000  Level Boston Center
Wed 08:15:44 PM 42.6089 -72.3497 101° East 236 272 9,000  Level Boston Center
Wed 08:16:44 PM 42.5919 -72.2594 104° East 241 277 9,000 -400 Level Boston Center
Wed 08:17:44 PM 42.5772 -72.1722 103° East 241 277 8,200 -800 Descending Boston Center
Wed 08:18:44 PM 42.5622 -72.0681 101° East 256 295 7,400 -650 Descending Boston Center
Wed 08:19:44 PM 42.5558 -71.9836 96° East 256 295 6,900 -550 Descending Boston Center
Wed 08:20:44 PM 42.5469 -71.8792 97° East 251 289 6,300 -450 Descending Boston Center
Wed 08:21:44 PM 42.5383 -71.8006 98° East 246 283 6,000 -150 Descending Boston Center
Wed 08:22:44 PM 42.5253 -71.7106 101° East 224 258 6,000 -100 Level Boston Center
Wed 08:23:44 PM 42.5183 -71.6400 98° East 219 252 5,800 -650 Descending Boston Center
Wed 08:24:44 PM 42.5283 -71.5497 81° East 214 246 4,700 -984 Descending Boston Center
Wed 08:25:46 PM 42.5333 -71.4667 85° East 224 258 3,800 -983 Descending KA90
Wed 08:26:40 PM 42.5500 -71.3833 75° East 233 268 2,800 -891 Descending KA90
Wed 08:27:54 PM 42.5833 -71.3000 61° Northeast 208 239 1,900 -387 Descending KA90
Wed 08:28:44 PM 42.6278 -71.2747 23° Northeast 194 223 2,000 55 Climbing Boston Center
Wed 08:29:44 PM 42.6272 -71.2239 91° East 147 169 2,000 -200 Level Boston Center
Wed 08:30:44 PM 42.5981 -71.2075 158° South 88 101 1,600 -300 Descending Boston Center
Wed 08:31:44 PM 42.5689 -71.2222 200° South 99 114 1,400 -150 Descending Boston Center
Wed 08:32:44 PM 42.5400 -71.2397 204° Southwest 110 127 1,300 -197 Descending Boston Center
Wed 08:33:46 PM 42.5167 -71.2500 198° South 125 144 1,000 -390 Descending KA90
Wed 08:34:47 PM 42.4833 -71.2667 200° South 95 109 500 -492 Descending KA90
Wed 08:37:00 PM 42.4667 -71.2833 184° South  Level FlightAware Approximate

Login

Don't have an account? Register now (free) for customized features, flight alerts, and more!